createdAt,value
2017-11-14T00:00:08.609Z,0
2017-11-14T00:01:07.945Z,0
2017-11-14T00:02:08.631Z,0
2017-11-14T00:03:09.329Z,0
2017-11-14T00:04:09.007Z,0
2017-11-14T00:05:08.658Z,0
2017-11-14T00:06:09.348Z,0
2017-11-14T00:07:09.373Z,0
2017-11-14T00:08:09.045Z,0
2017-11-14T00:09:09.055Z,0
2017-11-14T00:10:09.408Z,0
2017-11-14T00:11:09.092Z,0
2017-11-14T00:12:09.111Z,0
2017-11-14T00:13:09.443Z,0
2017-11-14T00:14:09.128Z,0
2017-11-14T00:15:09.479Z,0
2017-11-14T00:16:08.801Z,0
2017-11-14T00:17:09.154Z,0
2017-11-14T00:18:09.510Z,0
2017-11-14T00:19:09.170Z,0
2017-11-14T00:20:09.532Z,0
2017-11-14T00:21:09.210Z,0
2017-11-14T00:22:09.206Z,0
2017-11-14T00:23:09.221Z,0
2017-11-14T00:24:09.567Z,0
2017-11-14T00:25:09.581Z,0
2017-11-14T00:26:09.244Z,0
2017-11-14T00:27:09.597Z,0
2017-11-14T00:28:08.607Z,0
2017-11-14T00:29:09.285Z,0
2017-11-14T00:30:09.303Z,0
2017-11-14T00:31:09.645Z,0
2017-11-14T00:32:08.980Z,0
2017-11-14T00:33:08.664Z,0
2017-11-14T00:34:08.998Z,0
2017-11-14T00:35:09.354Z,0
2017-11-14T00:36:09.694Z,0
2017-11-14T00:37:09.030Z,0
2017-11-14T00:38:09.800Z,0
2017-11-14T00:39:09.729Z,0
2017-11-14T00:40:08.726Z,0
2017-11-14T00:41:09.421Z,0
2017-11-14T00:42:09.775Z,0
2017-11-14T00:43:09.444Z,0
2017-11-14T00:44:09.447Z,0
2017-11-14T00:45:09.800Z,0
2017-11-14T00:46:09.831Z,0
2017-11-14T00:47:09.491Z,0
2017-11-14T00:48:09.835Z,0
2017-11-14T00:49:09.189Z,0
2017-11-14T00:50:09.520Z,0
2017-11-14T00:51:09.531Z,0
2017-11-14T00:52:09.529Z,0
2017-11-14T00:53:09.909Z,0
2017-11-14T00:54:09.558Z,0
2017-11-14T00:55:09.901Z,0
2017-11-14T00:56:09.257Z,0
2017-11-14T00:57:09.926Z,0
2017-11-14T00:58:09.941Z,0
2017-11-14T00:59:09.636Z,0
2017-11-14T01:00:09.639Z,0
2017-11-14T01:01:10.004Z,0
2017-11-14T01:02:09.984Z,0
2017-11-14T01:03:08.987Z,0
2017-11-14T01:04:09.361Z,0
2017-11-14T01:05:10.019Z,0
2017-11-14T01:06:09.374Z,0
2017-11-14T01:07:09.704Z,0
2017-11-14T01:08:10.048Z,0
2017-11-14T01:09:10.060Z,0
2017-11-14T01:10:09.732Z,0
2017-11-14T01:11:09.744Z,0
2017-11-14T01:12:09.758Z,0
2017-11-14T01:13:09.800Z,0
2017-11-14T01:14:09.782Z,0
2017-11-14T01:15:09.456Z,0
2017-11-14T01:16:09.799Z,0
2017-11-14T01:17:09.470Z,0
2017-11-14T01:18:09.830Z,0
2017-11-14T01:19:10.174Z,0
2017-11-14T01:20:09.857Z,0
2017-11-14T01:21:09.864Z,0
2017-11-14T01:22:09.559Z,0
2017-11-14T01:23:09.874Z,0
2017-11-14T01:24:10.230Z,0
2017-11-14T01:25:09.931Z,0
2017-11-14T01:26:10.274Z,0
2017-11-14T01:27:09.933Z,0
2017-11-14T01:28:10.277Z,0
2017-11-14T01:29:09.949Z,0
2017-11-14T01:30:09.965Z,0
2017-11-14T01:31:10.323Z,0
2017-11-14T01:32:09.641Z,0
2017-11-14T01:33:09.653Z,0
2017-11-14T01:34:10.017Z,0
2017-11-14T01:35:10.012Z,0
2017-11-14T01:36:10.032Z,0
2017-11-14T01:37:10.021Z,0
2017-11-14T01:38:09.709Z,0
2017-11-14T01:39:10.409Z,0
2017-11-14T01:40:10.067Z,0
2017-11-14T01:41:10.074Z,0
2017-11-14T01:42:10.408Z,0
2017-11-14T01:43:10.073Z,0
2017-11-14T01:44:10.107Z,0
2017-11-14T01:45:09.775Z,0
2017-11-14T01:46:10.335Z,0
2017-11-14T01:47:09.794Z,0
2017-11-14T01:48:10.150Z,0
2017-11-14T01:49:09.822Z,0
2017-11-14T01:50:10.518Z,0
2017-11-14T01:51:10.510Z,0
2017-11-14T01:52:10.536Z,0
2017-11-14T01:53:09.555Z,0
2017-11-14T01:54:10.219Z,0
2017-11-14T01:55:09.930Z,0
2017-11-14T01:56:10.232Z,0
2017-11-14T01:57:10.245Z,0
2017-11-14T01:58:09.912Z,0
2017-11-14T01:59:10.269Z,0
2017-11-14T02:00:09.957Z,0
2017-11-14T02:01:10.276Z,0
2017-11-14T02:02:09.973Z,0
2017-11-14T02:03:10.641Z,0
2017-11-14T02:04:10.323Z,0
2017-11-14T02:05:09.653Z,0
2017-11-14T02:06:10.333Z,0
2017-11-14T02:07:10.691Z,0
2017-11-14T02:08:10.368Z,0
2017-11-14T02:09:10.705Z,0
2017-11-14T02:10:09.731Z,0
2017-11-14T02:11:09.848Z,0
2017-11-14T02:12:10.063Z,0
2017-11-14T02:13:10.085Z,0
2017-11-14T02:14:10.767Z,0
2017-11-14T02:15:10.447Z,0
2017-11-14T02:16:10.489Z,0
2017-11-14T02:17:10.804Z,0
2017-11-14T02:18:11.149Z,0
2017-11-14T02:19:10.862Z,0
2017-11-14T02:20:10.181Z,0
2017-11-14T02:21:10.495Z,0
2017-11-14T02:22:10.175Z,0
2017-11-14T02:23:10.188Z,0
2017-11-14T02:24:10.881Z,0
2017-11-14T02:25:10.894Z,0
2017-11-14T02:26:10.219Z,0
2017-11-14T02:27:10.905Z,0
2017-11-14T02:28:10.569Z,0
2017-11-14T02:29:10.252Z,0
2017-11-14T02:30:10.943Z,0
2017-11-14T02:31:10.609Z,0
2017-11-14T02:32:10.628Z,0
2017-11-14T02:33:10.972Z,0
2017-11-14T02:34:10.000Z,0
2017-11-14T02:35:11.013Z,0
2017-11-14T02:36:10.332Z,0
2017-11-14T02:37:10.676Z,0
2017-11-14T02:38:10.690Z,0
2017-11-14T02:39:10.369Z,0
2017-11-14T02:40:10.717Z,0
2017-11-14T02:41:11.052Z,0
2017-11-14T02:42:10.735Z,0
2017-11-14T02:43:10.742Z,0
2017-11-14T02:44:10.441Z,0
2017-11-14T02:45:10.430Z,0
2017-11-14T02:46:10.784Z,0
2017-11-14T02:47:10.443Z,0
2017-11-14T02:48:10.820Z,0
2017-11-14T02:49:11.167Z,0
2017-11-14T02:50:10.539Z,0
2017-11-14T02:51:10.874Z,0
2017-11-14T02:52:10.856Z,0
2017-11-14T02:53:10.522Z,0
2017-11-14T02:54:10.523Z,0
2017-11-14T02:55:10.538Z,0
2017-11-14T02:56:10.543Z,0
2017-11-14T02:57:10.896Z,0
2017-11-14T02:58:10.908Z,0
2017-11-14T02:59:11.253Z,0
2017-11-14T03:00:11.272Z,0
2017-11-14T03:01:10.700Z,0
2017-11-14T03:02:10.961Z,0
2017-11-14T03:03:11.311Z,0
2017-11-14T03:04:10.966Z,0
2017-11-14T03:05:11.352Z,0
2017-11-14T03:06:11.004Z,0
2017-11-14T03:07:11.377Z,0
2017-11-14T03:08:10.671Z,0
2017-11-14T03:09:11.363Z,0
2017-11-14T03:10:11.034Z,0
2017-11-14T03:11:11.374Z,0
2017-11-14T03:12:11.061Z,0
2017-11-14T03:13:11.071Z,0
2017-11-14T03:14:11.425Z,0
2017-11-14T03:15:11.094Z,0
2017-11-14T03:16:11.435Z,0
2017-11-14T03:17:10.786Z,0
2017-11-14T03:18:11.469Z,0
2017-11-14T03:19:11.489Z,0
2017-11-14T03:20:10.813Z,0
2017-11-14T03:21:11.146Z,0
2017-11-14T03:22:10.830Z,0
2017-11-14T03:23:11.545Z,0
2017-11-14T03:24:11.187Z,0
2017-11-14T03:25:11.540Z,0
2017-11-14T03:26:10.891Z,0
2017-11-14T03:27:11.216Z,0
2017-11-14T03:28:11.572Z,0
2017-11-14T03:29:11.591Z,0
2017-11-14T03:30:11.265Z,0
2017-11-14T03:31:11.630Z,0
2017-11-14T03:32:11.319Z,0
2017-11-14T03:33:10.944Z,0
2017-11-14T03:34:11.636Z,0
2017-11-14T03:35:11.650Z,0
2017-11-14T03:36:11.664Z,0
2017-11-14T03:37:11.343Z,0
2017-11-14T03:38:11.343Z,0
2017-11-14T03:39:11.692Z,0
2017-11-14T03:40:11.733Z,0
2017-11-14T03:41:11.380Z,0
2017-11-14T03:42:11.741Z,0
2017-11-14T03:43:10.764Z,0
2017-11-14T03:44:11.410Z,0
2017-11-14T03:45:11.418Z,0
2017-11-14T03:46:11.421Z,0
2017-11-14T03:47:11.785Z,0
2017-11-14T03:48:11.792Z,0
2017-11-14T03:49:11.855Z,0
2017-11-14T03:50:11.821Z,0
2017-11-14T03:51:11.495Z,0
2017-11-14T03:52:11.499Z,0
2017-11-14T03:53:11.165Z,0
2017-11-14T03:54:11.862Z,0
2017-11-14T03:55:11.863Z,0
2017-11-14T03:56:10.859Z,0
2017-11-14T03:57:11.213Z,0
2017-11-14T03:58:11.895Z,0
2017-11-14T03:59:11.913Z,0
2017-11-14T04:00:11.576Z,0
2017-11-14T04:01:11.254Z,0
2017-11-14T04:02:11.600Z,0
2017-11-14T04:03:10.943Z,0
2017-11-14T04:04:11.645Z,0
2017-11-14T04:05:11.988Z,0
2017-11-14T04:06:11.495Z,0
2017-11-14T04:07:12.077Z,0
2017-11-14T04:08:11.668Z,0
2017-11-14T04:09:11.337Z,0
2017-11-14T04:10:12.020Z,0
2017-11-14T04:11:12.042Z,0
2017-11-14T04:12:11.735Z,0
2017-11-14T04:13:12.075Z,0
2017-11-14T04:14:11.748Z,0
2017-11-14T04:15:11.742Z,0
2017-11-14T04:16:12.103Z,0
2017-11-14T04:17:11.447Z,0
2017-11-14T04:18:11.446Z,0
2017-11-14T04:19:11.831Z,0
2017-11-14T04:20:11.820Z,0
2017-11-14T04:21:11.821Z,0
2017-11-14T04:22:11.573Z,0
2017-11-14T04:23:11.513Z,0
2017-11-14T04:24:11.958Z,0
2017-11-14T04:25:11.538Z,0
2017-11-14T04:26:12.201Z,0
2017-11-14T04:27:12.236Z,0
2017-11-14T04:28:11.887Z,0
2017-11-14T04:29:11.564Z,0
2017-11-14T04:30:11.914Z,0
2017-11-14T04:31:11.577Z,0
2017-11-14T04:32:11.595Z,0
2017-11-14T04:33:12.270Z,0
2017-11-14T04:34:11.611Z,0
2017-11-14T04:35:11.980Z,0
2017-11-14T04:36:12.040Z,0
2017-11-14T04:37:11.653Z,0
2017-11-14T04:38:12.336Z,0
2017-11-14T04:39:11.671Z,0
2017-11-14T04:40:12.353Z,0
2017-11-14T04:41:12.046Z,0
2017-11-14T04:42:11.701Z,0
2017-11-14T04:43:12.389Z,0
2017-11-14T04:44:12.110Z,0
2017-11-14T04:45:11.741Z,0
2017-11-14T04:46:12.079Z,0
2017-11-14T04:47:12.091Z,0
2017-11-14T04:48:11.770Z,0
2017-11-14T04:49:12.114Z,0
2017-11-14T04:50:11.785Z,0
2017-11-14T04:51:12.473Z,0
2017-11-14T04:52:12.159Z,0
2017-11-14T04:53:12.494Z,0
2017-11-14T04:54:12.171Z,0
2017-11-14T04:55:12.530Z,0
2017-11-14T04:56:12.203Z,0
2017-11-14T04:57:12.535Z,0
2017-11-14T04:58:12.552Z,0
2017-11-14T04:59:12.232Z,0
2017-11-14T05:00:11.904Z,0
2017-11-14T05:01:12.261Z,0
2017-11-14T05:02:11.916Z,0
2017-11-14T05:03:12.620Z,0
2017-11-14T05:04:11.286Z,0
2017-11-14T05:05:12.623Z,0
2017-11-14T05:06:12.304Z,0
2017-11-14T05:07:11.982Z,0
2017-11-14T05:08:12.328Z,0
2017-11-14T05:09:12.339Z,0
2017-11-14T05:10:12.700Z,0
2017-11-14T05:11:12.349Z,0
2017-11-14T05:12:12.365Z,0
2017-11-14T05:13:12.710Z,0
2017-11-14T05:14:12.470Z,0
2017-11-14T05:15:12.180Z,0
2017-11-14T05:16:12.743Z,0
2017-11-14T05:17:12.098Z,0
2017-11-14T05:18:12.776Z,0
2017-11-14T05:19:12.449Z,0
2017-11-14T05:20:12.867Z,0
2017-11-14T05:21:12.811Z,0
2017-11-14T05:22:12.819Z,0
2017-11-14T05:23:12.882Z,0
2017-11-14T05:24:12.161Z,0
2017-11-14T05:25:12.860Z,0
2017-11-14T05:26:12.860Z,0
2017-11-14T05:27:12.875Z,0
2017-11-14T05:28:12.569Z,0
2017-11-14T05:29:12.561Z,0
2017-11-14T05:30:11.891Z,0
2017-11-14T05:31:12.585Z,0
2017-11-14T05:32:12.641Z,0
2017-11-14T05:33:12.599Z,0
2017-11-14T05:34:12.956Z,0
2017-11-14T05:35:12.619Z,0
2017-11-14T05:36:12.295Z,0
2017-11-14T05:37:12.640Z,0
2017-11-14T05:38:12.656Z,0
2017-11-14T05:39:13.002Z,0
2017-11-14T05:40:13.026Z,0
2017-11-14T05:41:12.026Z,0
2017-11-14T05:42:12.733Z,0
2017-11-14T05:43:12.708Z,0
2017-11-14T05:44:13.053Z,0
2017-11-14T05:45:12.738Z,0
2017-11-14T05:46:12.409Z,0
2017-11-14T05:47:12.755Z,0
2017-11-14T05:48:12.755Z,0
2017-11-14T05:49:13.125Z,0
2017-11-14T05:50:12.779Z,0
2017-11-14T05:51:12.458Z,0
2017-11-14T05:52:12.818Z,0
2017-11-14T05:53:12.476Z,0
2017-11-14T05:54:12.832Z,0
2017-11-14T05:55:12.163Z,0
2017-11-14T05:56:12.510Z,0
2017-11-14T05:57:13.192Z,0
2017-11-14T05:58:13.208Z,0
2017-11-14T05:59:13.215Z,0
2017-11-14T06:00:12.225Z,0
2017-11-14T06:01:12.564Z,0
2017-11-14T06:02:13.222Z,0
2017-11-14T06:03:12.588Z,0
2017-11-14T06:04:12.600Z,0
2017-11-14T06:05:12.953Z,0
2017-11-14T06:06:12.287Z,0
2017-11-14T06:07:12.964Z,0
2017-11-14T06:08:13.326Z,0
2017-11-14T06:09:12.657Z,0
2017-11-14T06:10:13.340Z,0
2017-11-14T06:11:13.013Z,0
2017-11-14T06:12:13.018Z,0
2017-11-14T06:13:13.373Z,0
2017-11-14T06:14:13.392Z,0
2017-11-14T06:15:12.733Z,0
2017-11-14T06:16:13.066Z,0
2017-11-14T06:17:13.431Z,0
2017-11-14T06:18:13.418Z,0
2017-11-14T06:19:13.119Z,0
2017-11-14T06:20:13.457Z,0
2017-11-14T06:21:13.121Z,0
2017-11-14T06:22:12.787Z,0
2017-11-14T06:23:13.135Z,0
2017-11-14T06:24:12.487Z,0
2017-11-14T06:25:13.495Z,0
2017-11-14T06:26:12.837Z,0
2017-11-14T06:27:13.519Z,0
2017-11-14T06:28:13.534Z,0
2017-11-14T06:29:13.543Z,0
2017-11-14T06:30:12.212Z,0
2017-11-14T06:31:13.565Z,0
2017-11-14T06:32:13.241Z,0
2017-11-14T06:33:13.249Z,0
2017-11-14T06:34:13.267Z,0
2017-11-14T06:35:13.274Z,0
2017-11-14T06:36:13.626Z,0
2017-11-14T06:37:12.623Z,0
2017-11-14T06:38:13.346Z,0
2017-11-14T06:39:13.325Z,0
2017-11-14T06:40:12.655Z,0
2017-11-14T06:41:13.046Z,0
2017-11-14T06:42:13.347Z,0
2017-11-14T06:43:13.354Z,0
2017-11-14T06:44:13.378Z,0
2017-11-14T06:45:12.714Z,0
2017-11-14T06:46:13.391Z,0
2017-11-14T06:47:13.740Z,0
2017-11-14T06:48:13.754Z,0
2017-11-14T06:49:13.790Z,0
2017-11-14T06:50:13.793Z,0
2017-11-14T06:51:13.111Z,0
2017-11-14T06:52:13.463Z,0
2017-11-14T06:53:13.806Z,0
2017-11-14T06:54:13.148Z,0
2017-11-14T06:55:13.489Z,0
2017-11-14T06:56:13.517Z,0
2017-11-14T06:57:13.513Z,0
2017-11-14T06:58:13.859Z,0
2017-11-14T06:59:13.551Z,0
2017-11-14T07:00:13.544Z,0
2017-11-14T07:01:13.943Z,0
2017-11-14T07:02:13.900Z,0
2017-11-14T07:03:13.578Z,0
2017-11-14T07:04:13.591Z,0
2017-11-14T07:05:13.597Z,0
2017-11-14T07:06:13.632Z,0
2017-11-14T07:07:13.958Z,0
2017-11-14T07:08:13.636Z,0
2017-11-14T07:09:13.654Z,0
2017-11-14T07:10:13.687Z,0
2017-11-14T07:11:13.680Z,0
2017-11-14T07:12:14.036Z,0
2017-11-14T07:13:13.357Z,0
2017-11-14T07:14:13.726Z,0
2017-11-14T07:15:13.708Z,0
2017-11-14T07:16:13.387Z,0
2017-11-14T07:17:13.741Z,0
2017-11-14T07:18:14.081Z,0
2017-11-14T07:19:13.425Z,0
2017-11-14T07:20:14.103Z,0
2017-11-14T07:21:14.119Z,0
2017-11-14T07:22:14.123Z,0
2017-11-14T07:23:14.131Z,0
2017-11-14T07:24:13.465Z,0
2017-11-14T07:25:14.165Z,0
2017-11-14T07:26:14.178Z,0
2017-11-14T07:27:13.511Z,0
2017-11-14T07:28:14.223Z,0
2017-11-14T07:29:14.231Z,0
2017-11-14T07:30:13.867Z,0
2017-11-14T07:31:13.886Z,0
2017-11-14T07:32:13.891Z,0
2017-11-14T07:33:13.908Z,0
2017-11-14T07:34:14.268Z,0
2017-11-14T07:35:14.285Z,0
2017-11-14T07:36:13.942Z,0
2017-11-14T07:37:13.624Z,0
2017-11-14T07:38:14.301Z,5
2017-11-14T07:39:14.302Z,5
2017-11-14T07:40:13.642Z,5
2017-11-14T07:41:13.998Z,5
2017-11-14T07:42:13.669Z,5
2017-11-14T07:43:13.685Z,5
2017-11-14T07:44:13.687Z,5
2017-11-14T07:45:14.368Z,5
2017-11-14T07:46:14.046Z,5
2017-11-14T07:47:14.386Z,5
2017-11-14T07:48:14.405Z,5
2017-11-14T07:49:13.747Z,5
2017-11-14T07:50:14.084Z,5
2017-11-14T07:51:14.101Z,5
2017-11-14T07:52:13.774Z,5
2017-11-14T07:53:14.454Z,5
2017-11-14T07:54:13.813Z,5
2017-11-14T07:55:13.803Z,5
2017-11-14T07:56:13.809Z,5
2017-11-14T07:57:14.166Z,5
2017-11-14T07:58:14.526Z,5
2017-11-14T07:59:13.840Z,5
2017-11-14T08:00:14.522Z,5
2017-11-14T08:01:14.203Z,5
2017-11-14T08:02:14.224Z,5
2017-11-14T08:03:14.570Z,5
2017-11-14T08:04:14.237Z,5
2017-11-14T08:05:14.580Z,5
2017-11-14T08:06:14.595Z,5
2017-11-14T08:07:14.606Z,5
2017-11-14T08:08:14.283Z,5
2017-11-14T08:09:14.284Z,5
2017-11-14T08:10:14.631Z,5
2017-11-14T08:11:13.972Z,5
2017-11-14T08:12:14.330Z,5
2017-11-14T08:13:14.680Z,5
2017-11-14T08:14:14.015Z,5
2017-11-14T08:15:14.705Z,5
2017-11-14T08:16:14.432Z,5
2017-11-14T08:17:14.732Z,5
2017-11-14T08:18:14.385Z,5
2017-11-14T08:19:14.772Z,5
2017-11-14T08:20:14.412Z,5
2017-11-14T08:21:14.093Z,5
2017-11-14T08:22:14.764Z,5
2017-11-14T08:23:14.143Z,5
2017-11-14T08:24:14.449Z,5
2017-11-14T08:25:14.803Z,5
2017-11-14T08:26:14.815Z,5
2017-11-14T08:27:14.486Z,5
2017-11-14T08:28:14.489Z,5
2017-11-14T08:29:14.170Z,5
2017-11-14T08:30:14.536Z,5
2017-11-14T08:31:14.188Z,5
2017-11-14T08:32:14.532Z,5
2017-11-14T08:33:14.881Z,5
2017-11-14T08:34:14.899Z,5
2017-11-14T08:35:14.911Z,5
2017-11-14T08:36:14.619Z,5
2017-11-14T08:37:14.590Z,5
2017-11-14T08:38:14.954Z,5
2017-11-14T08:39:14.275Z,5
2017-11-14T08:40:14.972Z,5
2017-11-14T08:41:14.659Z,5
2017-11-14T08:42:14.649Z,5
2017-11-14T08:43:14.685Z,5
2017-11-14T08:44:15.010Z,5
2017-11-14T08:45:14.676Z,5
2017-11-14T08:46:14.375Z,5
2017-11-14T08:47:15.046Z,5
2017-11-14T08:48:14.376Z,5
2017-11-14T08:49:15.058Z,5
2017-11-14T08:50:15.104Z,5
2017-11-14T08:51:15.096Z,5
2017-11-14T08:52:14.772Z,5
2017-11-14T08:53:14.764Z,5
2017-11-14T08:54:14.775Z,5
2017-11-14T08:55:14.794Z,5
2017-11-14T08:56:15.132Z,5
2017-11-14T08:57:14.475Z,5
2017-11-14T08:58:15.165Z,5
2017-11-14T08:59:14.848Z,5
2017-11-14T09:00:14.503Z,5
2017-11-14T09:01:14.520Z,5
2017-11-14T09:02:14.863Z,5
2017-11-14T09:03:14.892Z,5
2017-11-14T09:04:14.891Z,5
2017-11-14T09:05:15.243Z,5
2017-11-14T09:06:15.250Z,5
2017-11-14T09:07:14.578Z,5
2017-11-14T09:08:14.937Z,5
2017-11-14T09:09:15.285Z,5
2017-11-14T09:10:15.293Z,5
2017-11-14T09:11:15.298Z,5
2017-11-14T09:12:15.310Z,5
2017-11-14T09:13:15.340Z,5
2017-11-14T09:14:14.343Z,5
2017-11-14T09:15:15.342Z,5
2017-11-14T09:16:15.027Z,5
2017-11-14T09:17:15.412Z,5
2017-11-14T09:18:14.712Z,5
2017-11-14T09:19:15.056Z,5
2017-11-14T09:20:15.064Z,5
2017-11-14T09:21:14.734Z,5
2017-11-14T09:22:15.091Z,5
2017-11-14T09:23:15.434Z,5
2017-11-14T09:24:15.458Z,5
2017-11-14T09:25:15.128Z,5
2017-11-14T09:26:15.473Z,5
2017-11-14T09:27:15.475Z,5
2017-11-14T09:28:15.165Z,5
2017-11-14T09:29:14.832Z,5
2017-11-14T09:30:15.522Z,5
2017-11-14T09:31:15.536Z,5
2017-11-14T09:32:15.534Z,5
2017-11-14T09:33:15.551Z,5
2017-11-14T09:34:14.885Z,5
2017-11-14T09:35:15.572Z,5
2017-11-14T09:36:15.244Z,5
2017-11-14T09:37:15.307Z,5
2017-11-14T09:38:15.606Z,5
2017-11-14T09:39:15.620Z,5
2017-11-14T09:40:15.637Z,5
2017-11-14T09:41:15.663Z,5
2017-11-14T09:42:15.644Z,5
2017-11-14T09:43:15.330Z,5
2017-11-14T09:44:15.345Z,5
2017-11-14T09:45:15.346Z,5
2017-11-14T09:46:15.036Z,5
2017-11-14T09:47:15.698Z,5
2017-11-14T09:48:15.036Z,5
2017-11-14T09:49:15.389Z,5
2017-11-14T09:50:15.433Z,5
2017-11-14T09:51:15.081Z,5
2017-11-14T09:52:15.447Z,5
2017-11-14T09:53:15.433Z,5
2017-11-14T09:54:14.770Z,5
2017-11-14T09:55:15.789Z,5
2017-11-14T09:56:15.479Z,5
2017-11-14T09:57:15.149Z,5
2017-11-14T09:58:15.821Z,5
2017-11-14T09:59:15.160Z,5
2017-11-14T10:00:15.176Z,5
2017-11-14T10:01:15.858Z,5
2017-11-14T10:02:15.884Z,5
2017-11-14T10:03:15.896Z,5
2017-11-14T10:04:15.563Z,5
2017-11-14T10:05:15.904Z,5
2017-11-14T10:06:15.910Z,5
2017-11-14T10:07:15.586Z,5
2017-11-14T10:08:15.270Z,5
2017-11-14T10:09:15.285Z,5
2017-11-14T10:10:15.968Z,5
2017-11-14T10:11:15.972Z,5
2017-11-14T10:12:15.661Z,5
2017-11-14T10:13:15.716Z,5
2017-11-14T10:14:15.699Z,5
2017-11-14T10:15:16.033Z,5
2017-11-14T10:16:15.697Z,5
2017-11-14T10:17:16.069Z,5
2017-11-14T10:18:15.726Z,5
2017-11-14T10:19:16.081Z,10
2017-11-14T10:20:15.754Z,10
2017-11-14T10:21:16.092Z,10
2017-11-14T10:22:15.465Z,10
2017-11-14T10:23:15.779Z,10
2017-11-14T10:24:16.127Z,10
2017-11-14T10:25:16.143Z,10
2017-11-14T10:26:16.152Z,10
2017-11-14T10:27:16.172Z,10
2017-11-14T10:28:15.892Z,5
2017-11-14T10:29:15.854Z,5
2017-11-14T10:30:15.875Z,10
2017-11-14T10:31:15.533Z,10
2017-11-14T10:32:16.213Z,10
2017-11-14T10:33:15.900Z,10
2017-11-14T10:34:15.906Z,10
2017-11-14T10:35:15.917Z,10
2017-11-14T10:36:16.270Z,10
2017-11-14T10:37:15.938Z,10
2017-11-14T10:38:15.960Z,25
2017-11-14T10:39:16.010Z,20
2017-11-14T10:40:16.326Z,20
2017-11-14T10:41:16.337Z,15
2017-11-14T10:42:15.660Z,20
2017-11-14T10:43:16.016Z,15
2017-11-14T10:44:16.367Z,20
2017-11-14T10:45:16.370Z,25
2017-11-14T10:46:16.382Z,15
2017-11-14T10:47:16.060Z,20
2017-11-14T10:48:15.740Z,20
2017-11-14T10:49:16.083Z,20
2017-11-14T10:50:16.123Z,20
2017-11-14T10:51:15.443Z,20
2017-11-14T10:52:16.136Z,15
2017-11-14T10:53:16.498Z,10
2017-11-14T10:54:16.492Z,20
2017-11-14T10:55:16.500Z,20
2017-11-14T10:56:16.183Z,20
2017-11-14T10:57:16.194Z,10
2017-11-14T10:58:16.202Z,10
2017-11-14T10:59:16.550Z,10
2017-11-14T11:00:16.231Z,10
2017-11-14T11:01:16.236Z,15
2017-11-14T11:02:16.265Z,10
2017-11-14T11:03:16.260Z,15
2017-11-14T11:04:16.632Z,10
2017-11-14T11:05:16.332Z,10
2017-11-14T11:06:16.351Z,5
2017-11-14T11:07:16.646Z,15
2017-11-14T11:08:16.661Z,10
2017-11-14T11:09:16.321Z,15
2017-11-14T11:10:16.349Z,10
2017-11-14T11:11:16.368Z,10
2017-11-14T11:12:16.713Z,10
2017-11-14T11:13:16.392Z,10
2017-11-14T11:14:16.731Z,10
2017-11-14T11:15:16.410Z,10
2017-11-14T11:16:16.765Z,10
2017-11-14T11:17:16.433Z,10
2017-11-14T11:18:16.440Z,15
2017-11-14T11:19:16.794Z,15
2017-11-14T11:20:16.142Z,15
2017-11-14T11:21:16.149Z,15
2017-11-14T11:22:16.164Z,15
2017-11-14T11:23:16.513Z,15
2017-11-14T11:24:16.184Z,15
2017-11-14T11:25:16.891Z,20
2017-11-14T11:26:16.883Z,20
2017-11-14T11:27:16.573Z,15
2017-11-14T11:28:15.897Z,15
2017-11-14T11:29:16.921Z,10
2017-11-14T11:30:16.264Z,10
2017-11-14T11:31:16.609Z,10
2017-11-14T11:32:17.004Z,10
2017-11-14T11:33:16.639Z,5
2017-11-14T11:34:16.658Z,10
2017-11-14T11:35:16.672Z,15
2017-11-14T11:36:17.017Z,10
2017-11-14T11:37:17.029Z,10
2017-11-14T11:38:16.365Z,10
2017-11-14T11:39:17.071Z,15
2017-11-14T11:40:17.072Z,20
2017-11-14T11:41:16.751Z,15
2017-11-14T11:42:16.762Z,20
2017-11-14T11:43:17.139Z,15
2017-11-14T11:44:16.450Z,15
2017-11-14T11:45:17.126Z,25
2017-11-14T11:46:16.484Z,20
2017-11-14T11:47:16.492Z,20
2017-11-14T11:48:16.834Z,25
2017-11-14T11:49:17.186Z,15
2017-11-14T11:50:17.204Z,20
2017-11-14T11:51:17.217Z,25
2017-11-14T11:52:16.888Z,30
2017-11-14T11:53:17.240Z,35
2017-11-14T11:54:16.907Z,35
2017-11-14T11:55:16.927Z,30
2017-11-14T11:56:16.962Z,20
2017-11-14T11:57:16.949Z,20
2017-11-14T11:58:17.302Z,20
2017-11-14T11:59:16.302Z,20
2017-11-14T12:00:17.341Z,20
2017-11-14T12:01:17.421Z,25
2017-11-14T12:02:17.377Z,25
2017-11-14T12:03:17.375Z,20
2017-11-14T12:04:17.051Z,20
2017-11-14T12:05:16.733Z,20
2017-11-14T12:06:17.412Z,30
2017-11-14T12:07:17.432Z,30
2017-11-14T12:08:17.438Z,20
2017-11-14T12:09:17.461Z,10
2017-11-14T12:10:16.788Z,15
2017-11-14T12:11:17.172Z,15
2017-11-14T12:12:17.489Z,15
2017-11-14T12:13:17.511Z,20
2017-11-14T12:14:17.186Z,15
2017-11-14T12:15:17.189Z,10
2017-11-14T12:16:17.227Z,10
2017-11-14T12:17:17.564Z,10
2017-11-14T12:18:17.246Z,10
2017-11-14T12:19:17.582Z,5
2017-11-14T12:20:17.599Z,10
2017-11-14T12:21:17.273Z,10
2017-11-14T12:22:17.281Z,10
2017-11-14T12:23:17.308Z,10
2017-11-14T12:24:16.977Z,5
2017-11-14T12:25:16.985Z,5
2017-11-14T12:26:17.340Z,5
2017-11-14T12:27:17.700Z,5
2017-11-14T12:28:17.717Z,5
2017-11-14T12:29:17.074Z,5
2017-11-14T12:30:17.739Z,5
2017-11-14T12:31:17.747Z,5
2017-11-14T12:32:17.433Z,5
2017-11-14T12:33:17.441Z,10
2017-11-14T12:34:17.802Z,15
2017-11-14T12:35:17.801Z,15
2017-11-14T12:36:17.827Z,15
2017-11-14T12:37:17.886Z,20
2017-11-14T12:38:17.522Z,30
2017-11-14T12:39:17.528Z,20
2017-11-14T12:40:17.528Z,15
2017-11-14T12:41:17.881Z,15
2017-11-14T12:42:17.560Z,15
2017-11-14T12:43:17.917Z,15
2017-11-14T12:44:17.589Z,10
2017-11-14T12:45:17.603Z,10
2017-11-14T12:46:17.621Z,20
2017-11-14T12:47:17.627Z,25
2017-11-14T12:48:17.658Z,20
2017-11-14T12:49:18.014Z,15
2017-11-14T12:50:17.335Z,15
2017-11-14T12:51:17.683Z,15
2017-11-14T12:52:18.063Z,15
2017-11-14T12:53:17.735Z,15
2017-11-14T12:54:17.724Z,25
2017-11-14T12:55:17.059Z,25
2017-11-14T12:56:17.758Z,15
2017-11-14T12:57:17.565Z,15
2017-11-14T12:58:17.591Z,15
2017-11-14T12:59:17.629Z,15
2017-11-14T13:00:17.626Z,20
2017-11-14T13:01:17.357Z,20
2017-11-14T13:02:17.909Z,15
2017-11-14T13:03:17.672Z,10
2017-11-14T13:04:17.946Z,10
2017-11-14T13:05:17.950Z,15
2017-11-14T13:06:17.974Z,10
2017-11-14T13:07:17.988Z,15
2017-11-14T13:08:17.780Z,15
2017-11-14T13:09:18.018Z,20
2017-11-14T13:10:17.759Z,15
2017-11-14T13:11:18.041Z,10
2017-11-14T13:12:18.081Z,10
2017-11-14T13:13:18.078Z,15
2017-11-14T13:14:17.530Z,15
2017-11-14T13:15:18.122Z,10
2017-11-14T13:16:17.574Z,10
2017-11-14T13:17:17.870Z,5
2017-11-14T13:18:17.863Z,5
2017-11-14T13:19:17.893Z,5
2017-11-14T13:20:17.905Z,10
2017-11-14T13:21:17.904Z,10
2017-11-14T13:22:18.199Z,10
2017-11-14T13:23:17.940Z,10
2017-11-14T13:24:17.970Z,10
2017-11-14T13:25:18.012Z,10
2017-11-14T13:26:18.001Z,5
2017-11-14T13:27:18.003Z,5
2017-11-14T13:28:18.286Z,5
2017-11-14T13:29:18.025Z,5
2017-11-14T13:30:18.328Z,5
2017-11-14T13:31:18.065Z,5
2017-11-14T13:32:18.358Z,5
2017-11-14T13:33:18.399Z,5
2017-11-14T13:34:18.362Z,5
2017-11-14T13:35:17.839Z,5
2017-11-14T13:36:17.585Z,5
2017-11-14T13:37:17.870Z,5
2017-11-14T13:38:17.885Z,5
2017-11-14T13:39:18.173Z,5
2017-11-14T13:40:18.453Z,5
2017-11-14T13:41:18.219Z,5
2017-11-14T13:42:18.491Z,5
2017-11-14T13:43:18.237Z,5
2017-11-14T13:44:18.247Z,5
2017-11-14T13:45:18.254Z,5
2017-11-14T13:46:18.547Z,5
2017-11-14T13:47:18.580Z,5
2017-11-14T13:48:18.575Z,5
2017-11-14T13:49:18.312Z,5
2017-11-14T13:50:18.331Z,5
2017-11-14T13:51:18.080Z,5
2017-11-14T13:52:18.636Z,5
2017-11-14T13:53:18.377Z,5
2017-11-14T13:54:18.666Z,5
2017-11-14T13:55:18.417Z,5
2017-11-14T13:56:18.153Z,5
2017-11-14T13:57:18.705Z,5
2017-11-14T13:58:18.451Z,5
2017-11-14T13:59:18.192Z,5
2017-11-14T14:00:18.757Z,5
2017-11-14T14:01:18.493Z,5
2017-11-14T14:02:18.526Z,5
2017-11-14T14:03:18.787Z,5
2017-11-14T14:04:17.743Z,5
2017-11-14T14:05:18.549Z,5
2017-11-14T14:06:18.572Z,5
2017-11-14T14:07:18.863Z,5
2017-11-14T14:08:18.888Z,5
2017-11-14T14:09:18.604Z,5
2017-11-14T14:10:18.637Z,5
2017-11-14T14:11:18.913Z,5
2017-11-14T14:12:18.652Z,5
2017-11-14T14:13:18.672Z,5
2017-11-14T14:14:18.406Z,5
2017-11-14T14:15:18.695Z,5
2017-11-14T14:16:18.987Z,5
2017-11-14T14:17:18.444Z,5
2017-11-14T14:18:18.738Z,5
2017-11-14T14:19:19.032Z,5
2017-11-14T14:20:18.490Z,5
2017-11-14T14:21:18.774Z,5
2017-11-14T14:22:18.809Z,5
2017-11-14T14:23:19.110Z,5
2017-11-14T14:24:19.107Z,5
2017-11-14T14:25:19.107Z,5
2017-11-14T14:26:19.146Z,5
2017-11-14T14:27:19.137Z,5
2017-11-14T14:28:19.171Z,5
2017-11-14T14:29:19.171Z,5
2017-11-14T14:30:19.172Z,5
2017-11-14T14:31:18.926Z,5
2017-11-14T14:32:19.212Z,5
2017-11-14T14:33:18.954Z,5
2017-11-14T14:34:19.248Z,5
2017-11-14T14:35:18.980Z,5
2017-11-14T14:36:18.993Z,5
2017-11-14T14:37:19.015Z,5
2017-11-14T14:38:19.016Z,5
2017-11-14T14:39:19.308Z,5
2017-11-14T14:40:19.328Z,5
2017-11-14T14:41:19.337Z,5